Time;durP1;ratioP1;P1;durP2;ratioP2;P2;SDS_P1;SDS_P2;PMS_P1;PMS_P2;Temp;Humidity;BMP_temperature;BMP_pressure;BME280_temperature;BME280_humidity;BME280_pressure;Samples;Min_cycle;Max_cycle;Signal;HPM_P1;HPM_P2
2023/08/13 00:01:40;;;;;;;2.17;1.60;;;23.30;52.40;;;;;;5040941;28;20313;-74
2023/08/13 00:04:06;;;;;;;1.97;1.87;;;23.30;52.50;;;;;;5040446;28;20222;-74
2023/08/13 00:06:31;;;;;;;1.80;1.70;;;23.30;52.50;;;;;;5024521;28;20222;-74
2023/08/13 00:08:57;;;;;;;1.90;1.80;;;23.30;52.50;;;;;;5025099;28;20689;-75
2023/08/13 00:11:23;;;;;;;1.70;1.60;;;23.30;52.50;;;;;;5040819;28;20271;-75
2023/08/13 00:13:48;;;;;;;1.63;1.40;;;23.30;53.20;;;;;;5041239;28;20218;-74
2023/08/13 00:16:14;;;;;;;1.93;1.83;;;23.30;52.50;;;;;;5017341;28;20584;-74
2023/08/13 00:18:40;;;;;;;1.40;1.30;;;23.30;52.50;;;;;;5043007;28;20678;-74
2023/08/13 00:21:05;;;;;;;1.60;1.50;;;23.30;52.40;;;;;;5039599;28;20238;-74
2023/08/13 00:23:31;;;;;;;1.70;1.60;;;23.30;52.40;;;;;;5024733;28;20454;-74
2023/08/13 00:25:57;;;;;;;1.53;1.43;;;23.30;52.50;;;;;;5040574;28;20700;-74
2023/08/13 00:28:22;;;;;;;2.43;2.33;;;23.30;52.50;;;;;;5046068;28;20639;-74
2023/08/13 00:30:48;;;;;;;1.80;1.70;;;23.30;52.50;;;;;;5044196;28;20550;-74
2023/08/13 00:33:14;;;;;;;1.90;1.80;;;23.30;52.40;;;;;;5045142;28;20270;-74
2023/08/13 00:35:39;;;;;;;1.80;1.70;;;23.30;52.40;;;;;;5042953;28;20756;-74
2023/08/13 00:38:05;;;;;;;1.60;1.50;;;23.30;52.40;;;;;;5045266;28;20221;-74
2023/08/13 00:40:32;;;;;;;1.87;1.77;;;23.30;52.40;;;;;;5026990;28;20838;-74
2023/08/13 00:42:58;;;;;;;1.80;1.70;;;23.30;52.50;;;;;;5045422;28;20569;-73
2023/08/13 00:45:24;;;;;;;1.77;1.67;;;23.30;52.40;;;;;;5022672;28;20946;-73
2023/08/13 00:47:50;;;;;;;1.70;1.60;;;23.30;52.40;;;;;;5045131;28;20233;-73
2023/08/13 00:50:16;;;;;;;1.97;1.87;;;23.30;52.40;;;;;;5026277;28;20458;-73
2023/08/13 00:52:42;;;;;;;1.60;1.50;;;23.30;52.40;;;;;;5044946;28;20443;-73
2023/08/13 00:55:08;;;;;;;1.60;1.50;;;23.30;52.40;;;;;;5042463;28;21020;-74
2023/08/13 00:57:34;;;;;;;1.90;1.80;;;23.30;52.40;;;;;;5045272;28;21088;-73
2023/08/13 01:00:00;;;;;;;1.77;1.67;;;23.30;52.40;;;;;;5044741;28;20446;-74
2023/08/13 01:02:26;;;;;;;1.70;1.60;;;23.30;52.40;;;;;;5043649;28;20804;-73
2023/08/13 01:04:52;;;;;;;1.70;1.60;;;23.30;52.40;;;;;;5042640;28;20229;-73
2023/08/13 01:07:36;;;;;;;1.80;1.70;;;23.30;52.40;;;;;;5043318;28;20222;-74
2023/08/13 01:10:15;;;;;;;1.50;1.40;;;23.30;53.10;;;;;;5041607;28;20222;-73
2023/08/13 01:12:59;;;;;;;1.70;1.60;;;23.30;52.30;;;;;;5043259;28;20463;-73
2023/08/13 01:15:28;;;;;;;1.77;1.63;;;23.30;52.40;;;;;;5041989;28;20486;-73
2023/08/13 01:17:56;;;;;;;1.57;1.47;;;23.30;52.40;;;;;;5029571;28;20443;-73
2023/08/13 01:20:29;;;;;;;1.57;1.47;;;23.30;52.40;;;;;;5040223;28;20538;-73
2023/08/13 01:22:55;;;;;;;1.40;1.30;;;23.30;52.40;;;;;;5045867;28;20485;-73
2023/08/13 01:25:23;;;;;;;1.73;1.63;;;23.30;52.40;;;;;;5042931;28;20549;-73
2023/08/13 01:28:21;;;;;;;1.70;1.60;;;23.30;52.40;;;;;;5022009;28;20218;-73
2023/08/13 01:31:13;;;;;;;1.50;1.40;;;23.30;52.40;;;;;;5019233;28;20462;-73
2023/08/13 01:33:42;;;;;;;1.70;1.60;;;23.30;52.50;;;;;;5004843;28;20988;-73
2023/08/13 01:36:08;;;;;;;1.60;1.50;;;23.30;52.50;;;;;;5040884;28;21059;-74
2023/08/13 01:38:35;;;;;;;1.70;1.60;;;23.30;52.50;;;;;;5045315;28;20451;-71
2023/08/13 01:41:02;;;;;;;1.80;1.70;;;23.30;52.50;;;;;;5042081;28;20497;-73
2023/08/13 01:43:27;;;;;;;1.40;1.30;;;23.30;52.40;;;;;;5044152;28;20901;-73
2023/08/13 01:45:53;;;;;;;1.93;1.83;;;23.30;52.40;;;;;;5021069;28;20548;-73
2023/08/13 01:48:19;;;;;;;1.60;1.50;;;23.30;52.40;;;;;;5027560;28;20229;-73
2023/08/13 01:50:44;;;;;;;1.73;1.63;;;23.30;52.40;;;;;;5041613;28;20674;-73
2023/08/13 01:53:10;;;;;;;1.60;1.50;;;23.30;52.40;;;;;;5044307;28;20385;-75
2023/08/13 01:55:35;;;;;;;1.57;1.47;;;23.30;52.40;;;;;;5026061;28;20301;-74
2023/08/13 01:58:01;;;;;;;2.67;1.70;;;23.30;52.40;;;;;;5044538;28;20217;-75
2023/08/13 02:00:27;;;;;;;1.50;1.40;;;23.30;52.40;;;;;;5039896;28;20238;-75
2023/08/13 02:02:53;;;;;;;1.80;1.70;;;23.30;52.40;;;;;;5042005;28;20449;-75
2023/08/13 02:05:18;;;;;;;1.50;1.40;;;23.30;52.40;;;;;;5041210;28;20756;-75
2023/08/13 02:07:44;;;;;;;1.80;1.70;;;23.30;52.30;;;;;;5041289;28;20225;-75
2023/08/13 02:10:09;;;;;;;1.40;1.30;;;23.30;52.40;;;;;;5042360;28;20225;-75
2023/08/13 02:12:35;;;;;;;1.60;1.50;;;23.30;52.40;;;;;;5025781;28;20226;-74
2023/08/13 02:15:00;;;;;;;1.70;1.60;;;23.20;52.30;;;;;;5042902;28;20218;-74
2023/08/13 02:17:26;;;;;;;1.87;1.77;;;23.30;52.40;;;;;;5040507;28;20214;-74
2023/08/13 02:19:51;;;;;;;1.70;1.60;;;23.30;52.40;;;;;;5024539;28;20618;-74
2023/08/13 02:22:17;;;;;;;2.03;1.93;;;23.30;52.30;;;;;;5041353;28;20259;-74
2023/08/13 02:24:43;;;;;;;1.70;1.60;;;23.30;52.40;;;;;;5025523;28;20834;-74
2023/08/13 02:27:08;;;;;;;1.63;1.53;;;23.30;52.30;;;;;;5020830;28;20225;-74
2023/08/13 02:29:34;;;;;;;1.50;1.40;;;23.30;52.40;;;;;;5025027;28;20217;-74
2023/08/13 02:31:59;;;;;;;1.80;1.70;;;23.30;52.40;;;;;;5039695;28;20238;-74
2023/08/13 02:34:25;;;;;;;1.43;1.33;;;23.30;52.40;;;;;;5038146;28;20222;-74
2023/08/13 02:36:51;;;;;;;1.50;1.40;;;23.30;52.30;;;;;;5016523;28;20226;-74
2023/08/13 02:39:17;;;;;;;1.53;1.43;;;23.30;52.40;;;;;;5018699;28;20755;-74
2023/08/13 02:41:42;;;;;;;1.50;1.40;;;23.20;52.20;;;;;;5036702;28;20306;-74
2023/08/13 02:44:08;;;;;;;1.80;1.70;;;23.30;52.30;;;;;;5041274;28;20447;-74
2023/08/13 02:46:33;;;;;;;1.70;1.60;;;23.30;52.30;;;;;;5038324;28;20283;-74
2023/08/13 02:48:59;;;;;;;1.50;1.40;;;23.30;52.30;;;;;;5041507;28;20258;-74
2023/08/13 02:51:26;;;;;;;1.60;1.50;;;23.20;52.20;;;;;;5038044;28;22279;-74
2023/08/13 02:53:51;;;;;;;2.67;2.47;;;23.30;52.20;;;;;;5022745;28;20683;-74
2023/08/13 02:56:18;;;;;;;1.80;1.70;;;23.20;52.10;;;;;;5036604;28;20463;-74
2023/08/13 02:58:44;;;;;;;1.60;1.50;;;23.20;52.20;;;;;;5038761;28;20358;-74
2023/08/13 03:01:10;;;;;;;1.73;1.63;;;23.20;52.10;;;;;;5013790;28;20463;-74
2023/08/13 03:03:36;;;;;;;1.60;1.50;;;23.30;52.20;;;;;;5043020;28;20252;-74
2023/08/13 03:06:01;;;;;;;1.60;1.50;;;23.20;52.10;;;;;;5021186;28;20621;-74
2023/08/13 03:08:27;;;;;;;2.30;1.90;;;23.20;52.00;;;;;;5041278;28;20748;-74
2023/08/13 03:10:53;;;;;;;1.80;1.70;;;23.20;52.00;;;;;;5017251;28;20228;-74
2023/08/13 03:13:18;;;;;;;1.60;1.50;;;23.20;52.00;;;;;;5037771;28;20248;-74
2023/08/13 03:15:44;;;;;;;2.10;1.70;;;23.20;51.90;;;;;;5022259;28;20244;-74
2023/08/13 03:18:10;;;;;;;1.83;1.73;;;23.20;51.80;;;;;;5020949;28;20226;-74
2023/08/13 03:20:36;;;;;;;1.70;1.60;;;23.20;51.80;;;;;;5019065;28;20475;-74
2023/08/13 03:23:02;;;;;;;1.53;1.43;;;23.20;51.70;;;;;;5041820;28;20221;-72
2023/08/13 03:25:28;;;;;;;1.60;1.50;;;23.20;51.70;;;;;;5037301;28;20227;-73
2023/08/13 03:27:54;;;;;;;1.83;1.73;;;23.20;51.70;;;;;;5042715;28;20977;-73
2023/08/13 03:30:19;;;;;;;1.80;1.70;;;23.20;51.60;;;;;;5038107;28;20222;-73
2023/08/13 03:32:45;;;;;;;1.97;1.50;;;23.20;51.60;;;;;;5039267;28;20226;-73
2023/08/13 03:35:10;;;;;;;1.70;1.60;;;23.20;51.60;;;;;;5020571;28;20693;-73
2023/08/13 03:37:36;;;;;;;2.13;2.03;;;23.20;51.50;;;;;;5042185;28;20712;-73
2023/08/13 03:40:02;;;;;;;1.60;1.50;;;23.20;51.40;;;;;;5025583;28;20242;-73
2023/08/13 03:42:27;;;;;;;2.00;1.90;;;23.20;51.30;;;;;;5039209;28;20246;-73
2023/08/13 03:44:53;;;;;;;1.83;1.73;;;23.20;51.30;;;;;;5040854;28;20225;-73
2023/08/13 03:47:18;;;;;;;1.97;1.80;;;23.20;51.20;;;;;;5020613;28;20226;-73
2023/08/13 03:49:45;;;;;;;1.90;1.80;;;23.20;51.20;;;;;;5018988;28;20222;-73
2023/08/13 03:52:10;;;;;;;1.70;1.60;;;23.20;51.10;;;;;;5021173;28;20705;-73
2023/08/13 03:54:36;;;;;;;2.00;1.90;;;23.20;51.10;;;;;;5042163;28;20470;-73
2023/08/13 03:57:01;;;;;;;1.70;1.60;;;23.20;51.10;;;;;;5038069;28;20573;-73
2023/08/13 03:59:27;;;;;;;1.63;1.53;;;23.20;51.00;;;;;;5039747;28;20241;-73
2023/08/13 04:01:52;;;;;;;1.80;1.70;;;23.20;50.90;;;;;;5043982;28;20241;-73
2023/08/13 04:04:18;;;;;;;1.90;1.80;;;23.20;50.90;;;;;;5027829;28;20235;-74
2023/08/13 04:06:45;;;;;;;1.90;1.80;;;23.20;50.80;;;;;;5040974;28;20697;-73
2023/08/13 04:09:10;;;;;;;1.60;1.50;;;23.20;50.80;;;;;;5026503;28;20316;-74
2023/08/13 04:11:36;;;;;;;1.70;1.60;;;23.20;50.70;;;;;;5024927;28;20523;-74
2023/08/13 04:14:01;;;;;;;1.60;1.50;;;23.20;50.70;;;;;;5044920;28;20229;-74
2023/08/13 04:16:27;;;;;;;1.60;1.40;;;23.20;50.60;;;;;;5044941;28;20234;-74
2023/08/13 04:18:53;;;;;;;1.73;1.63;;;23.20;50.60;;;;;;5043893;28;20299;-73
2023/08/13 04:21:18;;;;;;;1.90;1.80;;;23.20;50.60;;;;;;5040135;28;20323;-74
2023/08/13 04:23:44;;;;;;;1.93;1.83;;;23.20;50.50;;;;;;5046443;28;20313;-73
2023/08/13 04:26:10;;;;;;;2.80;1.93;;;23.20;50.50;;;;;;5025789;28;20257;-73
2023/08/13 04:28:35;;;;;;;1.80;1.70;;;23.20;50.40;;;;;;5043911;28;20291;-74
2023/08/13 04:31:01;;;;;;;1.80;1.70;;;23.20;50.30;;;;;;5045733;28;20230;-73
2023/08/13 04:33:26;;;;;;;1.80;1.70;;;23.20;50.30;;;;;;5045717;28;20230;-75
2023/08/13 04:35:53;;;;;;;1.50;1.40;;;23.20;50.20;;;;;;5043713;28;20256;-75
2023/08/13 04:38:19;;;;;;;1.97;1.87;;;23.20;50.30;;;;;;5023287;28;20689;-75
2023/08/13 04:40:48;;;;;;;1.60;1.50;;;23.20;50.20;;;;;;5043941;28;20471;-75
2023/08/13 04:43:14;;;;;;;4.83;2.03;;;23.20;50.20;;;;;;5022961;28;20950;-75
2023/08/13 04:45:40;;;;;;;1.93;1.77;;;23.20;50.10;;;;;;5039842;28;20455;-75
2023/08/13 04:48:06;;;;;;;1.97;1.87;;;23.20;50.00;;;;;;5043664;28;20451;-75
2023/08/13 04:50:32;;;;;;;1.57;1.47;;;23.20;50.00;;;;;;5025406;28;20224;-75
2023/08/13 04:52:58;;;;;;;1.80;1.70;;;23.20;50.00;;;;;;5026272;28;20238;-75
2023/08/13 04:55:23;;;;;;;1.73;1.50;;;23.20;50.00;;;;;;5043628;28;20532;-75
2023/08/13 04:57:49;;;;;;;1.90;1.80;;;23.20;49.90;;;;;;5042500;28;20236;-75
2023/08/13 05:00:15;;;;;;;2.23;1.77;;;23.20;49.90;;;;;;5043383;28;20226;-75
2023/08/13 05:02:40;;;;;;;2.03;1.93;;;23.20;49.90;;;;;;5021988;28;20249;-75
2023/08/13 05:05:06;;;;;;;1.70;1.60;;;23.20;49.90;;;;;;5027144;28;20821;-75
2023/08/13 05:07:32;;;;;;;1.70;1.60;;;23.20;49.80;;;;;;5045295;28;20226;-75
2023/08/13 05:09:57;;;;;;;2.10;1.57;;;23.20;49.90;;;;;;5041618;28;20226;-75
2023/08/13 05:12:23;;;;;;;1.90;1.70;;;23.20;49.80;;;;;;5025633;28;20308;-75
2023/08/13 05:14:48;;;;;;;1.77;1.67;;;23.20;49.80;;;;;;5041947;28;20229;-75
2023/08/13 05:17:22;;;;;;;1.80;1.70;;;23.20;49.80;;;;;;5027216;28;20233;-75
2023/08/13 05:19:47;;;;;;;1.93;1.77;;;23.20;49.70;;;;;;5040635;28;20792;-75
2023/08/13 05:22:13;;;;;;;2.67;1.90;;;23.20;49.70;;;;;;5043974;28;20545;-75
2023/08/13 05:24:39;;;;;;;1.70;1.60;;;23.20;49.70;;;;;;5043792;28;20222;-75
2023/08/13 05:27:05;;;;;;;2.77;1.63;;;23.20;49.60;;;;;;5045840;28;20233;-75
2023/08/13 05:29:30;;;;;;;2.33;1.80;;;23.20;49.70;;;;;;5042662;28;20241;-76
2023/08/13 05:31:56;;;;;;;2.27;2.07;;;23.20;49.60;;;;;;5026412;28;20229;-75
2023/08/13 05:34:21;;;;;;;2.33;2.13;;;23.20;49.60;;;;;;5043929;28;20245;-76
2023/08/13 05:36:47;;;;;;;1.90;1.80;;;23.20;49.60;;;;;;5043085;28;20696;-75
2023/08/13 05:39:12;;;;;;;1.90;1.80;;;23.20;49.60;;;;;;5024826;28;20592;-74
2023/08/13 05:41:38;;;;;;;1.70;1.60;;;23.20;49.60;;;;;;5040244;28;20692;-73
2023/08/13 05:44:04;;;;;;;2.00;1.80;;;23.20;49.50;;;;;;5028771;28;20217;-74
2023/08/13 05:46:29;;;;;;;2.33;2.13;;;23.20;49.50;;;;;;5037119;28;20225;-74
2023/08/13 05:48:55;;;;;;;4.43;1.90;;;23.20;49.50;;;;;;5044953;28;20279;-74
2023/08/13 05:51:21;;;;;;;2.13;1.90;;;23.20;49.50;;;;;;5042898;28;20250;-74
2023/08/13 05:53:47;;;;;;;1.70;1.60;;;23.20;49.50;;;;;;5042576;28;20739;-74
2023/08/13 05:56:13;;;;;;;1.70;1.60;;;23.20;49.50;;;;;;5039169;28;20506;-73
2023/08/13 05:58:38;;;;;;;1.57;1.47;;;23.20;49.50;;;;;;5044167;28;20257;-74
2023/08/13 06:01:04;;;;;;;2.07;1.53;;;23.20;49.50;;;;;;5041347;28;20246;-73
2023/08/13 06:03:29;;;;;;;1.60;1.50;;;23.20;49.50;;;;;;5041859;28;20576;-73
2023/08/13 06:05:56;;;;;;;1.70;1.60;;;23.20;49.40;;;;;;5041775;28;20230;-74
2023/08/13 06:08:22;;;;;;;2.00;1.80;;;23.20;49.50;;;;;;5025967;28;20218;-74
2023/08/13 06:10:47;;;;;;;1.60;1.40;;;23.20;49.40;;;;;;5041483;28;20463;-74
2023/08/13 06:13:13;;;;;;;2.10;1.90;;;23.20;49.30;;;;;;5043886;28;20570;-74
2023/08/13 06:15:39;;;;;;;1.60;1.50;;;23.20;49.40;;;;;;5038655;28;20682;-74
2023/08/13 06:18:05;;;;;;;1.70;1.60;;;23.20;49.30;;;;;;5023893;28;20221;-74
2023/08/13 06:20:31;;;;;;;1.70;1.60;;;23.20;49.30;;;;;;5022761;28;20740;-74
2023/08/13 06:22:57;;;;;;;2.33;1.57;;;23.20;49.30;;;;;;5043587;28;20455;-74
2023/08/13 06:25:22;;;;;;;1.67;1.57;;;23.20;49.30;;;;;;5012632;28;20463;-74
2023/08/13 06:27:48;;;;;;;1.90;1.80;;;23.20;49.30;;;;;;5021732;28;20234;-74
2023/08/13 06:30:13;;;;;;;1.73;1.57;;;23.20;49.30;;;;;;5040914;28;20225;-74
2023/08/13 06:32:39;;;;;;;2.33;2.10;;;23.20;49.30;;;;;;5022009;28;20218;-74
2023/08/13 06:35:05;;;;;;;2.63;1.67;;;23.20;49.30;;;;;;5020343;28;20222;-74
2023/08/13 06:37:30;;;;;;;2.17;2.03;;;23.20;49.20;;;;;;5020011;28;20234;-74
2023/08/13 06:39:56;;;;;;;2.03;1.70;;;23.20;49.20;;;;;;5020009;28;20225;-74
2023/08/13 06:42:21;;;;;;;1.83;1.47;;;23.20;49.30;;;;;;5040278;28;20233;-74
2023/08/13 06:44:47;;;;;;;1.90;1.80;;;23.20;49.20;;;;;;5038326;28;20259;-74
2023/08/13 06:47:13;;;;;;;1.53;1.43;;;23.20;49.30;;;;;;5033833;28;20230;-74
2023/08/13 06:49:38;;;;;;;2.37;1.50;;;23.20;49.20;;;;;;5033440;28;20213;-74
2023/08/13 06:52:04;;;;;;;3.30;1.70;;;23.20;49.20;;;;;;5039114;28;20246;-74
2023/08/13 06:54:30;;;;;;;3.30;1.73;;;23.20;49.20;;;;;;5039020;28;20304;-74
2023/08/13 06:56:55;;;;;;;1.80;1.70;;;23.20;49.20;;;;;;5038216;28;20230;-80
2023/08/13 06:59:21;;;;;;;2.27;1.83;;;23.20;49.20;;;;;;5043397;28;20210;-78
2023/08/13 07:01:46;;;;;;;2.20;1.50;;;23.20;49.20;;;;;;5042208;28;20225;-79
2023/08/13 07:04:12;;;;;;;1.53;1.43;;;23.20;49.20;;;;;;5028935;28;20695;-79
2023/08/13 07:06:37;;;;;;;1.30;1.20;;;23.20;49.20;;;;;;5037279;28;20225;-79
2023/08/13 07:09:03;;;;;;;1.50;1.40;;;23.20;49.10;;;;;;5026051;28;20754;-79
2023/08/13 07:11:32;;;;;;;2.03;1.93;;;23.20;49.20;;;;;;5019646;28;20248;-79
2023/08/13 07:13:58;;;;;;;2.00;1.70;;;23.20;49.10;;;;;;5021383;28;20250;-79
2023/08/13 07:16:24;;;;;;;1.93;1.83;;;23.20;49.20;;;;;;5040261;28;20961;-80
2023/08/13 07:18:49;;;;;;;1.57;1.47;;;23.20;49.20;;;;;;5040073;28;20468;-79
2023/08/13 07:21:15;;;;;;;1.60;1.50;;;23.20;49.20;;;;;;5038314;28;20632;-77
2023/08/13 07:23:40;;;;;;;2.20;2.10;;;23.20;49.20;;;;;;5021852;28;20225;-75
2023/08/13 07:26:06;;;;;;;1.60;1.50;;;23.20;49.20;;;;;;5018965;28;20333;-77
2023/08/13 07:28:34;;;;;;;2.03;1.60;;;23.30;49.30;;;;;;5021832;28;20745;-78
2023/08/13 07:31:03;;;;;;;1.70;1.60;;;23.30;49.40;;;;;;5038034;28;20213;-80
2023/08/13 07:33:34;;;;;;;2.83;1.67;;;23.30;49.40;;;;;;5039316;28;20459;-80
2023/08/13 07:36:00;;;;;;;1.70;1.60;;;23.30;49.50;;;;;;5024963;28;20903;-79
2023/08/13 07:38:27;;;;;;;1.70;1.60;;;23.30;49.50;;;;;;5029171;28;21073;-81
2023/08/13 07:40:53;;;;;;;1.60;1.50;;;23.30;49.50;;;;;;5042059;28;20474;-80
2023/08/13 07:43:18;;;;;;;1.50;1.40;;;23.30;49.50;;;;;;5046764;28;20449;-80
2023/08/13 07:45:44;;;;;;;2.20;1.70;;;23.30;49.60;;;;;;5042810;28;20701;-81
2023/08/13 07:48:09;;;;;;;2.00;1.60;;;23.20;49.60;;;;;;5043206;28;20232;-80
2023/08/13 07:50:35;;;;;;;1.60;1.50;;;23.30;49.70;;;;;;5026222;28;22556;-80
2023/08/13 07:53:00;;;;;;;1.80;1.70;;;23.30;49.70;;;;;;5020728;28;20210;-80
2023/08/13 07:55:26;;;;;;;1.50;1.40;;;23.30;49.80;;;;;;5040264;28;20225;-79
2023/08/13 07:57:51;;;;;;;1.63;1.53;;;23.30;49.90;;;;;;5045146;28;20217;-80
2023/08/13 08:00:17;;;;;;;1.60;1.50;;;23.30;49.80;;;;;;5041062;28;20222;-77
2023/08/13 08:02:43;;;;;;;3.20;1.50;;;23.30;50.00;;;;;;5040404;28;20262;-77
2023/08/13 08:05:09;;;;;;;2.20;1.43;;;23.20;49.80;;;;;;5040835;28;20689;-75
2023/08/13 08:07:35;;;;;;;3.37;1.67;;;23.30;49.90;;;;;;5045100;28;20705;-77
2023/08/13 08:10:01;;;;;;;1.97;1.40;;;23.30;49.90;;;;;;5041709;28;20454;-77
2023/08/13 08:12:26;;;;;;;2.43;2.33;;;23.30;49.90;;;;;;5046450;28;20534;-77
2023/08/13 08:14:53;;;;;;;2.03;1.93;;;23.30;50.70;;;;;;5038724;28;20550;-77
2023/08/13 08:17:19;;;;;;;7.03;1.87;;;23.30;50.70;;;;;;5040621;28;20673;-77
2023/08/13 08:19:44;;;;;;;46.63;10.20;;;23.30;50.00;;;;;;5038682;28;20516;-77
2023/08/13 08:22:09;;;;;;;47.23;10.10;;;23.30;50.00;;;;;;5040561;28;20245;-77
2023/08/13 08:24:35;;;;;;;88.07;19.00;;;23.30;50.10;;;;;;5035076;28;20225;-77
2023/08/13 08:27:01;;;;;;;39.00;10.17;;;23.30;50.10;;;;;;5040114;28;20305;-79
2023/08/13 08:29:26;;;;;;;18.87;7.13;;;23.30;50.00;;;;;;5040074;28;20224;-79
2023/08/13 08:31:52;;;;;;;17.57;6.23;;;23.40;50.10;;;;;;5023242;28;20306;-80
2023/08/13 08:34:17;;;;;;;17.17;5.97;;;23.30;50.20;;;;;;5026110;28;20228;-77
2023/08/13 08:36:43;;;;;;;7.57;3.00;;;23.40;50.20;;;;;;5039829;28;20579;-81
2023/08/13 08:39:08;;;;;;;6.73;2.67;;;23.40;50.10;;;;;;5020753;28;20244;-80
2023/08/13 08:41:36;;;;;;;4.40;1.97;;;23.40;50.10;;;;;;5017636;28;20230;-85
2023/08/13 08:44:02;;;;;;;2.80;2.00;;;23.40;49.90;;;;;;5044417;28;20276;-83
2023/08/13 08:46:28;;;;;;;5.53;2.13;;;23.40;49.80;;;;;;5038422;28;20491;-81
2023/08/13 08:48:55;;;;;;;4.50;1.90;;;23.40;49.70;;;;;;5015996;28;21309;-79
2023/08/13 08:51:21;;;;;;;2.83;2.10;;;23.40;49.60;;;;;;5020180;28;20269;-77
2023/08/13 08:53:49;;;;;;;2.53;2.07;;;23.40;49.60;;;;;;5036271;28;20443;-77
2023/08/13 08:56:15;;;;;;;2.80;2.20;;;23.40;49.70;;;;;;5022870;28;21005;-76
2023/08/13 08:58:40;;;;;;;3.50;1.90;;;23.40;49.80;;;;;;5039098;28;20463;-77
2023/08/13 09:01:06;;;;;;;2.03;1.60;;;23.40;50.10;;;;;;5039804;28;20716;-77
2023/08/13 09:03:32;;;;;;;1.80;1.60;;;23.40;50.20;;;;;;5042448;28;20226;-77
2023/08/13 09:05:57;;;;;;;2.13;1.93;;;23.40;50.30;;;;;;5024582;28;20218;-77
2023/08/13 09:08:23;;;;;;;2.57;1.90;;;23.40;50.40;;;;;;5043026;28;20229;-78
2023/08/13 09:10:49;;;;;;;2.30;2.10;;;23.40;50.50;;;;;;5042084;28;20728;-76
2023/08/13 09:13:14;;;;;;;2.33;2.13;;;23.40;50.60;;;;;;5040733;28;20573;-75
2023/08/13 09:15:47;;;;;;;2.20;1.50;;;23.40;50.60;;;;;;5038705;28;20230;-76
2023/08/13 09:18:13;;;;;;;2.00;1.80;;;23.40;50.50;;;;;;5042060;28;20261;-76
2023/08/13 09:20:46;;;;;;;2.03;1.83;;;23.40;50.60;;;;;;5018195;28;20464;-76
2023/08/13 09:23:25;;;;;;;4.37;1.77;;;23.40;50.60;;;;;;5021138;28;20222;-74
2023/08/13 09:25:52;;;;;;;3.20;1.80;;;23.40;50.60;;;;;;5017069;28;21053;-73
2023/08/13 09:28:18;;;;;;;1.53;1.40;;;23.40;50.30;;;;;;5016866;28;21420;-72
2023/08/13 09:30:44;;;;;;;3.17;1.57;;;23.40;50.20;;;;;;5014704;28;20467;-74
2023/08/13 09:33:13;;;;;;;1.63;1.40;;;23.40;50.00;;;;;;5033347;28;20697;-74
2023/08/13 09:35:38;;;;;;;1.50;1.40;;;23.40;49.90;;;;;;5016315;28;20245;-74
2023/08/13 09:38:04;;;;;;;1.50;1.23;;;23.40;49.80;;;;;;5023303;28;20502;-74
2023/08/13 09:40:29;;;;;;;1.83;1.73;;;23.40;49.60;;;;;;5017210;28;20694;-77
2023/08/13 09:42:56;;;;;;;3.40;1.47;;;23.40;49.50;;;;;;5018366;28;20769;-73
2023/08/13 09:45:26;;;;;;;6.73;1.90;;;23.40;49.20;;;;;;5015964;28;20230;-74
2023/08/13 09:47:54;;;;;;;1.67;1.30;;;23.40;49.10;;;;;;5021147;28;20476;-74
2023/08/13 09:50:24;;;;;;;1.30;1.20;;;23.50;49.00;;;;;;5020147;28;20456;-74
2023/08/13 09:52:51;;;;;;;3.20;1.40;;;23.40;48.90;;;;;;5021942;28;20448;-73
2023/08/13 09:55:22;;;;;;;1.60;1.50;;;23.50;48.90;;;;;;5016181;28;20530;-75
2023/08/13 09:57:50;;;;;;;1.50;1.40;;;23.40;48.90;;;;;;5020363;28;20462;-76
2023/08/13 10:00:16;;;;;;;4.43;1.60;;;23.50;49.10;;;;;;5014228;28;20494;-76
2023/08/13 10:02:43;;;;;;;1.87;1.37;;;23.40;49.20;;;;;;5011020;28;20525;-76
2023/08/13 10:05:09;;;;;;;2.20;1.30;;;23.50;49.40;;;;;;5014309;28;20475;-76
2023/08/13 10:07:37;;;;;;;3.00;1.87;;;23.50;49.50;;;;;;5015160;28;20496;-79
2023/08/13 10:10:03;;;;;;;2.10;1.33;;;23.50;49.60;;;;;;5025195;28;20472;-78
2023/08/13 10:12:30;;;;;;;1.63;1.40;;;23.50;49.70;;;;;;5018933;28;20955;-78
2023/08/13 10:14:57;;;;;;;1.73;1.40;;;23.50;49.80;;;;;;5024836;28;20537;-78
2023/08/13 10:17:26;;;;;;;1.80;1.50;;;23.40;49.80;;;;;;5016178;28;20464;-78
2023/08/13 10:19:55;;;;;;;2.37;1.43;;;23.50;49.90;;;;;;5008407;28;21092;-77
2023/08/13 10:22:32;;;;;;;2.27;1.40;;;23.50;50.00;;;;;;5019177;28;20486;-77
2023/08/13 10:24:59;;;;;;;2.10;1.40;;;23.50;49.80;;;;;;5040089;28;21223;-77
2023/08/13 10:27:26;;;;;;;1.80;1.40;;;23.50;49.70;;;;;;5043499;28;20459;-78
2023/08/13 10:30:09;;;;;;;2.43;1.50;;;23.50;49.50;;;;;;5042040;28;20840;-77
2023/08/13 10:32:47;;;;;;;1.60;1.50;;;23.50;49.30;;;;;;5045651;28;20528;-78
2023/08/13 10:35:41;;;;;;;1.30;1.20;;;23.50;49.20;;;;;;5024430;28;20473;-78
2023/08/13 10:38:07;;;;;;;2.67;1.50;;;23.50;49.20;;;;;;5025229;28;20997;-78
2023/08/13 10:40:34;;;;;;;2.10;1.37;;;23.50;49.10;;;;;;5038938;28;20549;-78
2023/08/13 10:43:00;;;;;;;2.93;1.77;;;23.50;49.00;;;;;;5042266;28;20242;-79
2023/08/13 10:45:32;;;;;;;1.37;1.27;;;23.50;48.90;;;;;;5040793;28;20471;-78
2023/08/13 10:48:02;;;;;;;2.70;1.20;;;23.50;48.80;;;;;;5024332;28;21007;-78
2023/08/13 10:50:31;;;;;;;2.03;1.63;;;23.50;49.50;;;;;;5022438;28;20849;-79
2023/08/13 10:53:01;;;;;;;1.67;1.30;;;23.50;48.70;;;;;;5043953;28;20459;-79
2023/08/13 10:55:30;;;;;;;2.70;1.40;;;23.50;48.70;;;;;;5039106;28;20546;-78
2023/08/13 10:57:56;;;;;;;1.20;1.10;;;23.50;48.70;;;;;;5045034;28;20454;-78
2023/08/13 11:00:27;;;;;;;2.17;1.43;;;23.50;48.70;;;;;;5039008;28;20467;-78
2023/08/13 11:03:16;;;;;;;2.70;1.63;;;23.50;48.60;;;;;;5043032;28;20642;-78
2023/08/13 11:05:43;;;;;;;1.50;1.40;;;23.50;48.50;;;;;;5040842;28;20505;-78
2023/08/13 11:08:10;;;;;;;1.53;1.40;;;23.50;48.60;;;;;;5042322;28;20933;-78
2023/08/13 11:10:36;;;;;;;1.53;1.43;;;23.50;48.50;;;;;;5022692;28;20966;-78
2023/08/13 11:13:04;;;;;;;1.60;1.33;;;23.50;48.40;;;;;;5044373;28;20534;-78
2023/08/13 11:15:30;;;;;;;2.20;1.57;;;23.50;48.30;;;;;;5040850;28;20229;-78
2023/08/13 11:17:55;;;;;;;1.97;1.87;;;23.50;48.30;;;;;;5037769;28;20780;-78
2023/08/13 11:20:21;;;;;;;1.40;1.27;;;23.50;48.20;;;;;;5035978;28;20246;-78
2023/08/13 11:22:47;;;;;;;3.20;1.53;;;23.50;48.30;;;;;;5043288;28;20302;-78
2023/08/13 11:25:14;;;;;;;1.50;1.40;;;23.50;48.30;;;;;;5042749;28;20237;-78
2023/08/13 11:27:40;;;;;;;1.60;1.50;;;23.50;48.30;;;;;;5042771;28;20843;-78
2023/08/13 11:30:09;;;;;;;1.53;1.43;;;23.50;48.20;;;;;;5043532;28;20455;-78
2023/08/13 11:32:36;;;;;;;1.70;1.50;;;23.50;48.10;;;;;;5026301;28;20225;-81
2023/08/13 11:35:09;;;;;;;2.23;1.70;;;23.50;48.10;;;;;;5043453;28;20455;-80
2023/08/13 11:37:36;;;;;;;1.70;1.60;;;23.50;47.90;;;;;;5024004;28;20454;-80
2023/08/13 11:40:05;;;;;;;1.43;1.27;;;23.50;47.90;;;;;;5043178;28;20817;-80
2023/08/13 11:42:31;;;;;;;1.90;1.60;;;23.50;47.90;;;;;;5024549;28;20475;-79
2023/08/13 11:44:57;;;;;;;1.40;1.30;;;23.50;47.80;;;;;;5026580;28;20536;-80
2023/08/13 11:47:27;;;;;;;2.83;1.50;;;23.50;47.80;;;;;;5023802;28;20463;-81
2023/08/13 11:49:54;;;;;;;3.70;1.40;;;23.50;47.80;;;;;;5039013;28;20640;-79
2023/08/13 11:52:21;;;;;;;1.60;1.50;;;23.50;47.80;;;;;;5042566;28;20459;-80
2023/08/13 11:54:46;;;;;;;1.87;1.73;;;23.50;47.80;;;;;;5042954;28;20467;-81
2023/08/13 11:57:13;;;;;;;1.50;1.30;;;23.50;47.80;;;;;;5041864;28;20471;-81
2023/08/13 11:59:39;;;;;;;2.90;1.60;;;23.50;47.80;;;;;;5018494;28;20615;-80
2023/08/13 12:02:05;;;;;;;5.70;1.60;;;23.50;47.80;;;;;;5037609;28;20439;-80
2023/08/13 12:04:34;;;;;;;1.60;1.50;;;23.50;47.80;;;;;;5024543;28;20308;-82
2023/08/13 12:07:02;;;;;;;1.70;1.60;;;23.50;47.80;;;;;;5040061;28;20521;-81
2023/08/13 12:09:27;;;;;;;1.97;1.77;;;23.50;47.80;;;;;;5022378;28;20434;-81
2023/08/13 12:11:53;;;;;;;1.63;1.40;;;23.50;47.80;;;;;;5038023;28;20534;-82
2023/08/13 12:14:19;;;;;;;3.40;2.00;;;23.50;47.80;;;;;;5024212;28;20221;-82
2023/08/13 12:16:45;;;;;;;5.23;1.70;;;23.50;47.80;;;;;;5040815;28;20222;-82
2023/08/13 12:19:11;;;;;;;1.40;1.30;;;23.50;47.80;;;;;;5040009;28;20627;-79
2023/08/13 12:21:37;;;;;;;1.43;1.30;;;23.50;47.80;;;;;;5005251;28;20469;-81
2023/08/13 12:24:05;;;;;;;1.27;1.17;;;23.50;48.00;;;;;;5011512;28;20310;-78
2023/08/13 12:26:31;;;;;;;1.60;1.30;;;23.50;48.20;;;;;;5004708;28;20239;-78
2023/08/13 12:28:57;;;;;;;1.90;1.57;;;23.50;48.50;;;;;;5005902;28;20448;-76
2023/08/13 12:31:25;;;;;;;1.73;1.23;;;23.50;48.60;;;;;;5000635;28;20471;-74
2023/08/13 12:33:51;;;;;;;1.30;1.20;;;23.50;48.70;;;;;;5006849;28;20266;-76
2023/08/13 12:36:16;;;;;;;1.73;1.30;;;23.50;48.80;;;;;;5001923;28;20457;-76
2023/08/13 12:38:42;;;;;;;1.40;1.30;;;23.50;48.80;;;;;;5010510;28;20954;-76
2023/08/13 12:41:08;;;;;;;1.10;1.00;;;23.50;48.90;;;;;;4997875;28;20263;-76
2023/08/13 12:43:38;;;;;;;1.50;1.40;;;23.50;49.00;;;;;;5018778;28;20242;-78